Weather at Schaffe - EBDT


metar: EBDT 200625Z AUTO 05008KT 8000 FEW075/// BKN090/// 12/09 Q1008 BLU

23 minuten geleden, om 06:25 UTC, de wind blies met windsnelheden van 4.1 meter per seconde(9.2 mijl per uur) vanuit Noordoost nabij Schaffe. De temperatuur was 12 °C (54 °F), en de barometerdruk was 1,008 hPa (29.77 inHg). De relatieve vochtigheid was 81.9%. er was geen bewolking. De zichtbaarheid was 8.0 kilometer (5.0 mijl).

temperature image   windir image sky image 

Last 24 hour graph Schaffe - EBDT